Time;durP1;ratioP1;P1;durP2;ratioP2;P2;SDS_P1;SDS_P2;PMS_P1;PMS_P2;Temp;Humidity;BMP_temperature;BMP_pressure;BME280_temperature;BME280_humidity;BME280_pressure;Samples;Min_cycle;Max_cycle;Signal;HPM_P1;HPM_P2
2021/07/20 00:00:01;;;;;;;;;;;23.90;78.40;23.90;99402.00;;;;342955;28;92007;-92
2021/07/20 00:00:15;;;;;;;;;;;23.90;78.50;23.80;99398.00;;;;344606;28;95568;-93
2021/07/20 00:00:27;;;;;;;;;;;23.90;78.90;23.80;99394.00;;;;345634;28;92020;-92
2021/07/20 00:00:38;;;;;;;;;;;23.90;78.20;23.90;99399.00;;;;346673;27;95656;-91
2021/07/20 00:00:51;;;;;;;;;;;23.90;78.30;23.90;99397.00;;;;345444;28;91200;-92
2021/07/20 00:01:03;;;;;;;;;;;23.90;78.30;23.90;99402.00;;;;345905;28;94150;-93
2021/07/20 00:01:15;;;;;;;;;;;23.90;78.40;23.90;99392.00;;;;342906;28;92130;-93
2021/07/20 00:01:27;;;;;;;;;;;23.90;78.50;23.80;99396.00;;;;345939;28;95862;-93
2021/07/20 00:01:39;;;;;;;;;;;23.90;78.60;23.90;99396.00;;;;342998;28;91238;-93
2021/07/20 00:01:53;;;;;;;;;;;23.90;78.60;23.90;99406.00;;;;344503;28;96366;-92
2021/07/20 00:02:29;;;;;;;;;;;23.90;78.60;23.90;99395.00;;;;344389;28;92002;-92
2021/07/20 00:02:45;;;;;;;;;;;23.80;78.60;23.90;99405.00;;;;341754;28;95924;-93
2021/07/20 00:02:58;;;;;;;;;;;23.90;78.40;23.90;99399.00;;;;340614;28;92023;-92
2021/07/20 00:03:10;;;;;;;;;;;23.90;78.60;23.90;99400.00;;;;343265;28;95845;-92
2021/07/20 00:03:22;;;;;;;;;;;23.90;78.60;23.90;99401.00;;;;344270;28;90559;-92
2021/07/20 00:03:34;;;;;;;;;;;23.90;78.50;23.90;99399.00;;;;347043;28;94916;-93
2021/07/20 00:03:48;;;;;;;;;;;23.90;79.00;23.80;99402.00;;;;344191;28;92120;-92
2021/07/20 00:04:00;;;;;;;;;;;23.90;78.30;23.80;99400.00;;;;344453;28;95886;-92
2021/07/20 00:04:31;;;;;;;;;;;23.90;78.30;23.90;99404.00;;;;342868;28;92013;-92
2021/07/20 00:04:43;;;;;;;;;;;23.90;78.40;23.90;99406.00;;;;344510;28;95093;-92
2021/07/20 00:04:55;;;;;;;;;;;23.90;78.40;23.80;99405.00;;;;345474;28;92167;-93
2021/07/20 00:05:09;;;;;;;;;;;23.90;78.50;23.90;99404.00;;;;344656;28;94797;-93
2021/07/20 00:05:23;;;;;;;;;;;23.90;78.40;23.90;99402.00;;;;342965;28;92025;-91
2021/07/20 00:05:38;;;;;;;;;;;23.90;78.40;23.90;99406.00;;;;341896;28;95964;-92
2021/07/20 00:05:50;;;;;;;;;;;23.90;78.40;23.90;99406.00;;;;342954;28;91258;-93
2021/07/20 00:06:02;;;;;;;;;;;23.90;78.30;23.90;99408.00;;;;344609;28;95673;-92
2021/07/20 00:06:13;;;;;;;;;;;23.80;78.30;23.90;99403.00;;;;345774;28;91179;-91
2021/07/20 00:06:25;;;;;;;;;;;23.90;78.30;23.90;99408.00;;;;341855;28;96325;-92
2021/07/20 00:06:37;;;;;;;;;;;23.90;78.30;23.90;99409.00;;;;343650;28;92109;-93
2021/07/20 00:06:49;;;;;;;;;;;23.90;78.30;23.90;99404.00;;;;343209;28;95816;-92
2021/07/20 00:07:01;;;;;;;;;;;23.90;78.30;23.90;99403.00;;;;345171;28;92109;-92
2021/07/20 00:07:12;;;;;;;;;;;23.90;78.30;23.90;99403.00;;;;344506;28;96316;-92
2021/07/20 00:07:25;;;;;;;;;;;23.80;78.20;23.90;99397.00;;;;344291;28;92061;-93
2021/07/20 00:07:38;;;;;;;;;;;23.90;78.30;23.90;99396.00;;;;344717;28;94726;-92
2021/07/20 00:08:00;;;;;;;;;;;23.90;78.30;23.90;99402.00;;;;345562;28;91342;-91
2021/07/20 00:08:12;;;;;;;;;;;23.90;78.40;23.80;99406.00;;;;345850;28;95038;-92
2021/07/20 00:08:24;;;;;;;;;;;23.90;78.60;23.90;99403.00;;;;345677;28;92087;-93
2021/07/20 00:08:35;;;;;;;;;;;23.90;78.40;23.80;99401.00;;;;341831;28;94410;-92
2021/07/20 00:08:47;;;;;;;;;;;23.90;78.40;23.90;99408.00;;;;344334;28;92128;-93
2021/07/20 00:08:59;;;;;;;;;;;23.90;78.60;23.90;99401.00;;;;344627;28;95336;-93
2021/07/20 00:09:11;;;;;;;;;;;23.90;78.40;23.90;99411.00;;;;344185;28;92098;-92
2021/07/20 00:09:23;;;;;;;;;;;23.90;78.40;23.90;99404.00;;;;345939;28;95803;-92
2021/07/20 00:09:35;;;;;;;;;;;23.90;78.30;23.90;99407.00;;;;345067;28;92047;-92
2021/07/20 00:09:47;;;;;;;;;;;23.90;78.90;23.80;99404.00;;;;347127;28;95886;-92
2021/07/20 00:09:59;;;;;;;;;;;23.90;78.20;23.80;99405.00;;;;346253;28;90497;-92
2021/07/20 00:10:12;;;;;;;;;;;23.80;78.10;23.90;99398.00;;;;344718;28;91330;-92
2021/07/20 00:10:33;;;;;;;;;;;23.90;78.20;23.80;99403.00;;;;342985;28;92634;-92
2021/07/20 00:10:54;;;;;;;;;;;23.90;78.30;23.90;99406.00;;;;343160;28;95825;-92
2021/07/20 00:11:06;;;;;;;;;;;23.90;78.30;23.90;99408.00;;;;343074;28;91974;-92
2021/07/20 00:11:18;;;;;;;;;;;23.90;78.20;23.80;99400.00;;;;344476;28;95012;-92
2021/07/20 00:11:29;;;;;;;;;;;23.90;78.30;23.90;99402.00;;;;344171;28;92079;-92
2021/07/20 00:11:41;;;;;;;;;;;23.90;78.30;23.80;99400.00;;;;343165;28;94602;-92
2021/07/20 00:11:53;;;;;;;;;;;23.90;79.00;23.80;99402.00;;;;345671;28;92160;-92
2021/07/20 00:12:05;;;;;;;;;;;23.90;78.30;23.80;99403.00;;;;345893;28;95935;-92
2021/07/20 00:12:18;;;;;;;;;;;23.90;78.20;23.80;99413.00;;;;347056;28;90481;-92
2021/07/20 00:12:30;;;;;;;;;;;23.90;78.30;23.80;99410.00;;;;347016;28;94232;-92
2021/07/20 00:12:42;;;;;;;;;;;23.90;78.30;23.80;99404.00;;;;345095;28;92134;-92
2021/07/20 00:12:54;;;;;;;;;;;23.90;78.10;23.80;99397.00;;;;344591;28;94578;-92
2021/07/20 00:13:06;;;;;;;;;;;23.90;78.30;23.80;99405.00;;;;344384;28;91920;-92
2021/07/20 00:13:17;;;;;;;;;;;23.90;78.20;23.80;99405.00;;;;345898;28;94954;-92
2021/07/20 00:13:29;;;;;;;;;;;23.90;78.20;23.80;99404.00;;;;346060;28;91242;-92
2021/07/20 00:13:41;;;;;;;;;;;23.90;78.40;23.80;99408.00;;;;347405;28;95476;-92
2021/07/20 00:13:53;;;;;;;;;;;23.90;78.40;23.80;99400.00;;;;347090;28;92207;-93
2021/07/20 00:14:05;;;;;;;;;;;23.90;78.30;23.80;99402.00;;;;347309;28;94886;-92
2021/07/20 00:14:17;;;;;;;;;;;23.90;78.40;23.90;99405.00;;;;344226;28;91357;-92
2021/07/20 00:14:29;;;;;;;;;;;23.80;78.30;23.90;99407.00;;;;344636;28;94071;-92
2021/07/20 00:14:40;;;;;;;;;;;23.90;78.40;23.80;99405.00;;;;345773;28;92005;-93
2021/07/20 00:14:52;;;;;;;;;;;23.80;78.30;23.80;99401.00;;;;347327;28;95809;-92
2021/07/20 00:15:06;;;;;;;;;;;23.80;78.40;23.70;99405.00;;;;346979;28;92038;-93
2021/07/20 00:15:18;;;;;;;;;;;23.90;78.50;23.70;99408.00;;;;345746;28;94490;-92
2021/07/20 00:15:29;;;;;;;;;;;23.80;78.50;23.70;99408.00;;;;343889;28;92362;-92
2021/07/20 00:15:42;;;;;;;;;;;23.80;78.50;23.80;99400.00;;;;343671;28;94459;-93
2021/07/20 00:15:58;;;;;;;;;;;23.80;78.60;23.70;99410.00;;;;344311;28;91297;-92
2021/07/20 00:16:10;;;;;;;;;;;23.80;78.60;23.80;99404.00;;;;343199;28;95619;-92
2021/07/20 00:16:22;;;;;;;;;;;23.80;78.60;23.80;99405.00;;;;343044;28;91265;-92
2021/07/20 00:16:34;;;;;;;;;;;23.80;78.60;23.80;99398.00;;;;344128;28;92745;-92
2021/07/20 00:16:45;;;;;;;;;;;23.80;78.60;23.80;99409.00;;;;342986;28;91162;-92
2021/07/20 00:16:58;;;;;;;;;;;23.80;78.60;23.90;99409.00;;;;345916;28;95359;-92
2021/07/20 00:17:10;;;;;;;;;;;23.80;78.60;23.90;99406.00;;;;343046;28;91928;-92
2021/07/20 00:17:24;;;;;;;;;;;23.80;78.50;23.80;99409.00;;;;343178;28;95907;-92
2021/07/20 00:17:36;;;;;;;;;;;23.80;78.40;23.80;99398.00;;;;344213;28;92011;-92
2021/07/20 00:17:48;;;;;;;;;;;23.80;78.50;23.80;99401.00;;;;346044;28;94827;-92
2021/07/20 00:18:10;;;;;;;;;;;23.80;78.60;23.80;99399.00;;;;344364;28;92040;-92
2021/07/20 00:18:24;;;;;;;;;;;23.80;78.60;23.60;99406.00;;;;344584;28;94730;-92
2021/07/20 00:18:36;;;;;;;;;;;23.80;78.60;23.70;99406.00;;;;346314;28;90546;-92
2021/07/20 00:18:48;;;;;;;;;;;23.80;78.50;23.80;99408.00;;;;344348;28;94381;-92
2021/07/20 00:19:00;;;;;;;;;;;23.80;78.60;23.70;99406.00;;;;341502;28;92173;-92
2021/07/20 00:19:13;;;;;;;;;;;23.80;78.60;23.80;99407.00;;;;343207;28;95637;-92
2021/07/20 00:19:25;;;;;;;;;;;23.80;78.60;23.80;99408.00;;;;344251;28;91230;-92
2021/07/20 00:19:36;;;;;;;;;;;23.80;78.70;23.80;99408.00;;;;343254;28;95697;-92
2021/07/20 00:19:49;;;;;;;;;;;23.80;78.70;23.70;99403.00;;;;343028;28;92448;-92
2021/07/20 00:20:03;;;;;;;;;;;23.80;78.70;23.80;99405.00;;;;345957;28;94954;-92
2021/07/20 00:20:16;;;;;;;;;;;23.80;78.80;23.80;99407.00;;;;345760;28;91189;-92
2021/07/20 00:20:28;;;;;;;;;;;23.80;78.80;23.70;99404.00;;;;344565;28;96275;-92
2021/07/20 00:20:40;;;;;;;;;;;23.80;78.90;23.70;99406.00;;;;342987;28;91260;-92
2021/07/20 00:20:52;;;;;;;;;;;23.80;78.80;23.70;99411.00;;;;343350;28;94091;-92
2021/07/20 00:21:04;;;;;;;;;;;23.80;78.70;23.70;99408.00;;;;344116;28;92036;-92
2021/07/20 00:21:16;;;;;;;;;;;23.80;79.10;23.80;99407.00;;;;344625;28;95458;-92
2021/07/20 00:21:28;;;;;;;;;;;23.80;78.80;23.70;99404.00;;;;344730;28;92058;-93
2021/07/20 00:21:40;;;;;;;;;;;23.80;78.70;23.70;99407.00;;;;348560;27;95047;-92
2021/07/20 00:21:52;;;;;;;;;;;23.70;78.80;23.70;99405.00;;;;344427;28;91970;-92
2021/07/20 00:22:04;;;;;;;;;;;23.70;78.70;23.70;99413.00;;;;344487;28;95576;-92
2021/07/20 00:22:15;;;;;;;;;;;23.70;78.70;23.70;99402.00;;;;344422;28;91919;-92
2021/07/20 00:22:27;;;;;;;;;;;23.70;78.70;23.70;99397.00;;;;345702;28;95925;-93
2021/07/20 00:22:39;;;;;;;;;;;23.70;78.70;23.70;99407.00;;;;343157;28;90463;-92
2021/07/20 00:22:51;;;;;;;;;;;23.70;78.70;23.70;99405.00;;;;344889;28;94359;-92
2021/07/20 00:23:04;;;;;;;;;;;23.70;78.70;23.70;99409.00;;;;343147;28;91233;-92
2021/07/20 00:23:18;;;;;;;;;;;23.70;78.80;23.80;99407.00;;;;344529;28;94957;-92
2021/07/20 00:23:29;;;;;;;;;;;23.70;78.90;23.80;99396.00;;;;344363;28;92046;-92
2021/07/20 00:23:41;;;;;;;;;;;23.80;78.90;23.80;99398.00;;;;345997;28;95932;-93
2021/07/20 00:23:53;;;;;;;;;;;23.80;78.80;23.80;99403.00;;;;344449;28;91937;-92
2021/07/20 00:24:05;;;;;;;;;;;23.80;78.90;23.80;99396.00;;;;344761;28;94654;-91
2021/07/20 00:24:17;;;;;;;;;;;23.70;79.50;23.70;99407.00;;;;345942;28;91139;-91
2021/07/20 00:24:28;;;;;;;;;;;23.80;79.00;23.70;99404.00;;;;346374;28;95446;-91
2021/07/20 00:24:40;;;;;;;;;;;23.70;78.90;23.80;99406.00;;;;344050;28;91525;-92
2021/07/20 00:24:52;;;;;;;;;;;23.70;79.00;23.70;99403.00;;;;343262;28;94404;-92
2021/07/20 00:25:05;;;;;;;;;;;23.70;79.00;23.70;99403.00;;;;345656;28;92128;-92
2021/07/20 00:25:17;;;;;;;;;;;23.70;78.90;23.70;99406.00;;;;347317;28;94882;-92
2021/07/20 00:25:29;;;;;;;;;;;23.70;78.90;23.80;99407.00;;;;344652;28;92125;-92
2021/07/20 00:25:41;;;;;;;;;;;23.70;78.90;23.80;99406.00;;;;345950;28;94788;-92
2021/07/20 00:25:53;;;;;;;;;;;23.70;78.80;23.70;99395.00;;;;345631;28;92085;-92
2021/07/20 00:26:06;;;;;;;;;;;23.70;78.70;23.70;99403.00;;;;345768;28;95068;-92
2021/07/20 00:26:18;;;;;;;;;;;23.70;78.70;23.70;99400.00;;;;346839;28;92020;-92
2021/07/20 00:26:30;;;;;;;;;;;23.70;78.80;23.70;99393.00;;;;346022;28;94780;-92
2021/07/20 00:26:43;;;;;;;;;;;23.70;78.80;23.70;99399.00;;;;345692;28;91348;-92
2021/07/20 00:26:55;;;;;;;;;;;23.70;78.90;23.70;99407.00;;;;344685;28;95070;-93
2021/07/20 00:27:07;;;;;;;;;;;23.70;78.90;23.70;99404.00;;;;345634;28;91264;-92
2021/07/20 00:27:19;;;;;;;;;;;23.70;78.90;23.70;99407.00;;;;344543;28;94836;-93
2021/07/20 00:27:31;;;;;;;;;;;23.70;78.90;23.70;99403.00;;;;343826;28;92215;-92
2021/07/20 00:27:43;;;;;;;;;;;23.70;79.00;23.70;99392.00;;;;343093;28;94779;-92
2021/07/20 00:27:56;;;;;;;;;;;23.70;79.00;23.70;99399.00;;;;345316;28;91257;-92
2021/07/20 00:28:07;;;;;;;;;;;23.70;79.00;23.70;99409.00;;;;343225;28;95731;-93
2021/07/20 00:28:24;;;;;;;;;;;23.70;78.90;23.70;99402.00;;;;343008;28;91288;-92
2021/07/20 00:28:36;;;;;;;;;;;23.70;78.90;23.60;99399.00;;;;342944;28;94823;-92
2021/07/20 00:28:48;;;;;;;;;;;23.70;79.00;23.60;99397.00;;;;341590;28;91346;-92
2021/07/20 00:29:00;;;;;;;;;;;23.70;78.90;23.60;99394.00;;;;343325;28;94931;-92
2021/07/20 00:29:12;;;;;;;;;;;23.70;78.90;23.60;99394.00;;;;345654;28;91189;-92
2021/07/20 00:29:23;;;;;;;;;;;23.70;78.90;23.60;99397.00;;;;344485;28;96619;-92
2021/07/20 00:29:35;;;;;;;;;;;23.70;79.10;23.50;99393.00;;;;344105;28;92092;-92
2021/07/20 00:29:47;;;;;;;;;;;23.60;78.90;23.60;99402.00;;;;344619;28;95195;-92
2021/07/20 00:29:59;;;;;;;;;;;23.60;79.00;23.50;99403.00;;;;344299;28;92001;-92
2021/07/20 00:30:11;;;;;;;;;;;23.60;79.10;23.50;99401.00;;;;347334;28;93663;-93
2021/07/20 00:30:23;;;;;;;;;;;23.60;79.00;23.60;99396.00;;;;345673;28;91159;-93
2021/07/20 00:30:35;;;;;;;;;;;23.60;79.10;23.60;99400.00;;;;344330;28;95746;-92
2021/07/20 00:30:47;;;;;;;;;;;23.60;79.10;23.60;99387.00;;;;345583;28;90590;-92
2021/07/20 00:30:59;;;;;;;;;;;23.60;79.10;23.50;99402.00;;;;347293;28;95085;-92
2021/07/20 00:31:11;;;;;;;;;;;23.60;79.10;23.50;99401.00;;;;344262;28;92067;-92
2021/07/20 00:31:23;;;;;;;;;;;23.60;79.00;23.40;99399.00;;;;344506;28;94958;-92
2021/07/20 00:31:35;;;;;;;;;;;23.60;79.00;23.40;99404.00;;;;344441;28;91270;-92
2021/07/20 00:31:47;;;;;;;;;;;23.50;79.20;23.50;99405.00;;;;344650;28;95236;-92
2021/07/20 00:31:59;;;;;;;;;;;23.50;79.20;23.50;99398.00;;;;344326;28;91959;-93
2021/07/20 00:32:10;;;;;;;;;;;23.50;79.30;23.60;99396.00;;;;347262;28;95964;-92
2021/07/20 00:32:22;;;;;;;;;;;23.50;79.30;23.60;99405.00;;;;345738;28;92022;-92
2021/07/20 00:32:34;;;;;;;;;;;23.50;79.20;23.60;99401.00;;;;342901;28;95896;-92
2021/07/20 00:32:46;;;;;;;;;;;23.50;79.10;23.60;99397.00;;;;341557;28;91418;-91
2021/07/20 00:32:59;;;;;;;;;;;23.50;79.10;23.60;99395.00;;;;343256;28;93753;-92
2021/07/20 00:33:11;;;;;;;;;;;23.60;79.10;23.60;99402.00;;;;344086;28;91239;-91
2021/07/20 00:33:22;;;;;;;;;;;23.60;79.10;23.60;99391.00;;;;345860;28;96133;-92
2021/07/20 00:33:34;;;;;;;;;;;23.60;79.10;23.60;99397.00;;;;347561;27;92160;-92
2021/07/20 00:33:46;;;;;;;;;;;23.60;79.10;23.60;99393.00;;;;342715;28;95815;-92
2021/07/20 00:33:58;;;;;;;;;;;23.60;79.10;23.60;99395.00;;;;342803;28;91209;-92
2021/07/20 00:34:10;;;;;;;;;;;23.60;79.10;23.60;99398.00;;;;343166;28;96357;-92
2021/07/20 00:34:21;;;;;;;;;;;23.60;79.00;23.60;99395.00;;;;344425;28;92012;-93
2021/07/20 00:34:33;;;;;;;;;;;23.60;78.90;23.60;99393.00;;;;344482;28;95972;-92
2021/07/20 00:34:45;;;;;;;;;;;23.60;78.90;23.60;99395.00;;;;345667;28;91413;-92
2021/07/20 00:34:57;;;;;;;;;;;23.60;78.90;23.60;99392.00;;;;346030;28;95409;-92
2021/07/20 00:35:10;;;;;;;;;;;23.60;78.90;23.60;99400.00;;;;345693;28;91115;-92
2021/07/20 00:35:22;;;;;;;;;;;23.60;79.10;23.60;99398.00;;;;344204;28;95771;-91
2021/07/20 00:35:34;;;;;;;;;;;23.60;79.70;23.60;99397.00;;;;345778;28;92014;-93
2021/07/20 00:35:47;;;;;;;;;;;23.60;79.20;23.60;99394.00;;;;344560;28;96222;-92
2021/07/20 00:35:58;;;;;;;;;;;23.60;79.20;23.50;99403.00;;;;347033;28;92030;-92
2021/07/20 00:36:10;;;;;;;;;;;23.60;79.20;23.60;99394.00;;;;345863;28;95494;-92
2021/07/20 00:36:22;;;;;;;;;;;23.60;79.10;23.50;99401.00;;;;347132;28;91978;-92
2021/07/20 00:36:34;;;;;;;;;;;23.60;79.20;23.60;99397.00;;;;346906;28;96278;-93
2021/07/20 00:36:45;;;;;;;;;;;23.60;79.10;23.50;99399.00;;;;344315;28;91999;-92
2021/07/20 00:36:57;;;;;;;;;;;23.50;79.10;23.60;99401.00;;;;347140;28;94067;-92
2021/07/20 00:37:09;;;;;;;;;;;23.60;79.20;23.50;99398.00;;;;342816;28;92377;-92
2021/07/20 00:37:21;;;;;;;;;;;23.50;79.20;23.50;99393.00;;;;343202;28;95204;-92
2021/07/20 00:37:33;;;;;;;;;;;23.60;79.20;23.60;99392.00;;;;344193;28;92090;-92
2021/07/20 00:37:45;;;;;;;;;;;23.50;79.10;23.50;99396.00;;;;344458;28;95999;-92
2021/07/20 00:37:57;;;;;;;;;;;23.50;79.10;23.50;99400.00;;;;344260;28;92132;-93
2021/07/20 00:38:11;;;;;;;;;;;23.50;79.10;23.40;99405.00;;;;344520;28;95585;-92
2021/07/20 00:38:25;;;;;;;;;;;23.50;79.20;23.50;99394.00;;;;345534;28;92082;-92
2021/07/20 00:38:37;;;;;;;;;;;23.50;79.20;23.50;99391.00;;;;341657;28;96107;-92
2021/07/20 00:38:49;;;;;;;;;;;23.50;79.30;23.50;99401.00;;;;344247;28;91347;-92
2021/07/20 00:39:00;;;;;;;;;;;23.50;79.40;23.40;99400.00;;;;344610;28;95136;-92
2021/07/20 00:39:12;;;;;;;;;;;23.50;79.40;23.40;99396.00;;;;345563;28;91186;-91
2021/07/20 00:39:24;;;;;;;;;;;23.50;79.40;23.40;99396.00;;;;344442;28;96204;-92
2021/07/20 00:39:36;;;;;;;;;;;23.50;79.40;23.40;99408.00;;;;344065;28;92100;-93
2021/07/20 00:39:48;;;;;;;;;;;23.50;79.50;23.40;99393.00;;;;345761;28;95794;-93
2021/07/20 00:39:59;;;;;;;;;;;23.50;79.60;23.50;99398.00;;;;344199;28;92352;-92
2021/07/20 00:40:15;;;;;;;;;;;23.40;79.60;23.50;99403.00;;;;344543;28;96716;-93
2021/07/20 00:40:27;;;;;;;;;;;23.40;79.50;23.50;99397.00;;;;344263;28;91162;-92
2021/07/20 00:40:39;;;;;;;;;;;23.40;79.70;23.50;99397.00;;;;344543;28;94798;-92
2021/07/20 00:40:50;;;;;;;;;;;23.50;79.60;23.50;99400.00;;;;344247;28;91379;-92
2021/07/20 00:41:03;;;;;;;;;;;23.40;79.60;23.50;99402.00;;;;341969;28;94120;-92
2021/07/20 00:41:14;;;;;;;;;;;23.40;79.50;23.50;99400.00;;;;342826;28;92102;-92
2021/07/20 00:41:26;;;;;;;;;;;23.40;79.50;23.50;99402.00;;;;343109;28;95223;-92
2021/07/20 00:41:38;;;;;;;;;;;23.40;79.60;23.40;99396.00;;;;344521;28;91964;-92
2021/07/20 00:41:50;;;;;;;;;;;23.40;79.80;23.50;99394.00;;;;343156;28;95741;-92
2021/07/20 00:42:02;;;;;;;;;;;23.40;79.70;23.50;99401.00;;;;345696;28;91958;-94
2021/07/20 00:42:16;;;;;;;;;;;23.40;79.60;23.40;99403.00;;;;340491;28;96147;-91
2021/07/20 00:42:28;;;;;;;;;;;23.40;79.80;23.40;99400.00;;;;343243;28;91145;-92
2021/07/20 00:42:40;;;;;;;;;;;23.40;79.70;23.40;99395.00;;;;345785;28;95273;-92
2021/07/20 00:42:52;;;;;;;;;;;23.40;79.70;23.30;99394.00;;;;344436;28;91330;-92
2021/07/20 00:43:04;;;;;;;;;;;23.40;79.80;23.40;99404.00;;;;345963;28;94927;-93
2021/07/20 00:43:15;;;;;;;;;;;23.40;79.80;23.40;99395.00;;;;342903;28;92163;-92
2021/07/20 00:43:27;;;;;;;;;;;23.40;79.80;23.40;99396.00;;;;343268;28;95657;-92
2021/07/20 00:43:39;;;;;;;;;;;23.40;79.70;23.40;99393.00;;;;342980;28;92086;-92
2021/07/20 00:43:51;;;;;;;;;;;23.40;79.70;23.40;99394.00;;;;343176;28;95697;-91
2021/07/20 00:44:03;;;;;;;;;;;23.40;79.80;23.40;99395.00;;;;344508;28;91144;-92
2021/07/20 00:44:15;;;;;;;;;;;23.40;79.80;23.40;99398.00;;;;346001;28;95953;-92
2021/07/20 00:44:27;;;;;;;;;;;23.40;79.90;23.40;99396.00;;;;343020;28;92043;-92
2021/07/20 00:44:38;;;;;;;;;;;23.40;79.80;23.40;99397.00;;;;344569;28;95468;-92
2021/07/20 00:44:50;;;;;;;;;;;23.40;79.80;23.40;99395.00;;;;341657;28;91407;-92
2021/07/20 00:45:03;;;;;;;;;;;23.40;79.70;23.40;99399.00;;;;343147;28;94688;-92
2021/07/20 00:45:16;;;;;;;;;;;23.40;79.70;23.40;99400.00;;;;345747;28;91251;-93
2021/07/20 00:45:28;;;;;;;;;;;23.40;79.70;23.40;99399.00;;;;346518;27;94750;-92
2021/07/20 00:45:40;;;;;;;;;;;23.40;79.70;23.40;99401.00;;;;343026;28;92492;-92
2021/07/20 00:45:52;;;;;;;;;;;23.40;79.80;23.40;99400.00;;;;344582;28;94497;-92
2021/07/20 00:46:04;;;;;;;;;;;23.40;79.60;23.40;99408.00;;;;342978;28;92107;-93
2021/07/20 00:46:15;;;;;;;;;;;23.40;79.60;23.40;99402.00;;;;345833;28;95860;-92
2021/07/20 00:46:27;;;;;;;;;;;23.40;79.70;23.30;99395.00;;;;345559;28;91263;-92
2021/07/20 00:46:39;;;;;;;;;;;23.40;79.70;23.30;99394.00;;;;346009;28;93721;-92
2021/07/20 00:46:51;;;;;;;;;;;23.40;79.70;23.30;99397.00;;;;342940;28;90418;-93
2021/07/20 00:47:03;;;;;;;;;;;23.40;79.80;23.30;99399.00;;;;344548;28;95346;-92
2021/07/20 00:47:15;;;;;;;;;;;23.40;79.80;23.30;99398.00;;;;344231;28;92075;-92
2021/07/20 00:47:27;;;;;;;;;;;23.40;79.80;23.30;99404.00;;;;340446;28;95935;-93
2021/07/20 00:47:39;;;;;;;;;;;23.40;79.80;23.30;99398.00;;;;343075;28;91086;-92
2021/07/20 00:47:51;;;;;;;;;;;23.40;79.70;23.40;99405.00;;;;344516;28;94962;-92
2021/07/20 00:48:03;;;;;;;;;;;23.40;79.80;23.30;99398.00;;;;347073;28;91962;-93
2021/07/20 00:48:14;;;;;;;;;;;23.40;79.80;23.30;99398.00;;;;344532;28;95178;-92
2021/07/20 00:48:26;;;;;;;;;;;23.40;79.90;23.40;99400.00;;;;343999;28;91937;-92
2021/07/20 00:48:38;;;;;;;;;;;23.40;80.00;23.40;99403.00;;;;344676;28;96179;-92
2021/07/20 00:48:50;;;;;;;;;;;23.40;80.00;23.40;99398.00;;;;345590;28;91241;-92
2021/07/20 00:49:02;;;;;;;;;;;23.40;79.90;23.40;99396.00;;;;346168;28;93810;-93
2021/07/20 00:49:14;;;;;;;;;;;23.40;79.90;23.30;99404.00;;;;345589;28;92047;-93
2021/07/20 00:49:25;;;;;;;;;;;23.40;80.00;23.30;99398.00;;;;345869;28;95958;-92
2021/07/20 00:49:37;;;;;;;;;;;23.40;79.90;23.30;99405.00;;;;345679;28;92009;-93
2021/07/20 00:49:49;;;;;;;;;;;23.40;79.80;23.20;99395.00;;;;341833;28;94654;-92
2021/07/20 00:50:02;;;;;;;;;;;23.30;79.80;23.30;99404.00;;;;342882;28;92073;-92
2021/07/20 00:50:16;;;;;;;;;;;23.30;79.90;23.30;99402.00;;;;341879;28;95943;-92
2021/07/20 00:50:29;;;;;;;;;;;23.40;79.90;23.30;99403.00;;;;344374;28;91203;-92
2021/07/20 00:50:43;;;;;;;;;;;23.40;80.00;23.30;99403.00;;;;343189;28;95612;-92
2021/07/20 00:50:55;;;;;;;;;;;23.30;79.90;23.30;99404.00;;;;342947;28;91288;-93
2021/07/20 00:51:08;;;;;;;;;;;23.30;80.00;23.30;99404.00;;;;344322;28;94199;-92
2021/07/20 00:51:19;;;;;;;;;;;23.30;80.10;23.30;99398.00;;;;343828;28;91196;-92
2021/07/20 00:51:31;;;;;;;;;;;23.30;80.10;23.30;99399.00;;;;345609;28;94697;-92
2021/07/20 00:51:43;;;;;;;;;;;23.30;80.10;23.40;99403.00;;;;342702;28;91143;-92
2021/07/20 00:51:55;;;;;;;;;;;23.30;80.00;23.30;99404.00;;;;344177;28;96135;-92
2021/07/20 00:52:07;;;;;;;;;;;23.30;79.90;23.30;99403.00;;;;344353;28;91171;-93
2021/07/20 00:52:19;;;;;;;;;;;23.30;79.90;23.30;99399.00;;;;345873;28;95862;-92
2021/07/20 00:52:31;;;;;;;;;;;23.30;79.90;23.30;99403.00;;;;345631;28;91969;-92
2021/07/20 00:52:42;;;;;;;;;;;23.30;79.90;23.30;99401.00;;;;345929;28;94851;-92
2021/07/20 00:52:55;;;;;;;;;;;23.30;80.00;23.30;99406.00;;;;344270;28;91351;-92
2021/07/20 00:53:08;;;;;;;;;;;23.30;80.00;23.40;99400.00;;;;346004;28;94965;-92
2021/07/20 00:53:21;;;;;;;;;;;23.30;80.00;23.30;99409.00;;;;345677;28;91142;-92
2021/07/20 00:53:33;;;;;;;;;;;23.30;80.00;23.20;99396.00;;;;344507;28;95866;-92
2021/07/20 00:53:46;;;;;;;;;;;23.30;80.10;23.20;99402.00;;;;342952;28;92057;-92
2021/07/20 00:53:58;;;;;;;;;;;23.30;80.10;23.10;99391.00;;;;344431;28;95944;-92
2021/07/20 00:54:10;;;;;;;;;;;23.30;80.20;23.20;99391.00;;;;344157;28;91983;-92
2021/07/20 00:54:21;;;;;;;;;;;23.30;80.30;23.30;99406.00;;;;345769;28;95868;-92
2021/07/20 00:54:33;;;;;;;;;;;23.30;80.30;23.30;99402.00;;;;345113;28;92149;-92
2021/07/20 00:54:45;;;;;;;;;;;23.30;80.30;23.30;99405.00;;;;345792;28;95590;-92
2021/07/20 00:54:57;;;;;;;;;;;23.30;80.30;23.30;99404.00;;;;344850;28;91253;-92
2021/07/20 00:55:09;;;;;;;;;;;23.30;80.20;23.30;99406.00;;;;344613;28;93996;-92
2021/07/20 00:55:21;;;;;;;;;;;23.30;80.20;23.30;99406.00;;;;345599;28;91162;-92
2021/07/20 00:55:37;;;;;;;;;;;23.30;80.20;23.30;99405.00;;;;344923;28;95372;-92
2021/07/20 00:55:48;;;;;;;;;;;23.30;80.20;23.30;99404.00;;;;342976;28;91913;-92
2021/07/20 00:56:00;;;;;;;;;;;23.30;80.30;23.30;99400.00;;;;344495;28;95735;-92
2021/07/20 00:56:12;;;;;;;;;;;23.30;80.30;23.20;99400.00;;;;342856;28;92109;-93
2021/07/20 00:56:24;;;;;;;;;;;23.30;80.20;23.30;99401.00;;;;344614;28;94090;-92
2021/07/20 00:56:35;;;;;;;;;;;23.30;80.20;23.30;99399.00;;;;344054;28;92142;-92
2021/07/20 00:56:47;;;;;;;;;;;23.30;80.30;23.40;99399.00;;;;344617;28;95817;-93
2021/07/20 00:57:00;;;;;;;;;;;23.30;80.30;23.30;99401.00;;;;344287;28;91273;-92
2021/07/20 00:57:12;;;;;;;;;;;23.30;80.20;23.40;99405.00;;;;346030;28;93809;-92
2021/07/20 00:57:24;;;;;;;;;;;23.30;80.20;23.30;99405.00;;;;342680;28;91169;-93
2021/07/20 00:57:37;;;;;;;;;;;23.30;80.20;23.30;99409.00;;;;345673;28;94799;-92
2021/07/20 00:57:50;;;;;;;;;;;23.30;80.20;23.30;99409.00;;;;344313;28;91921;-93
2021/07/20 00:58:03;;;;;;;;;;;23.30;80.30;23.30;99402.00;;;;342311;28;95144;-92
2021/07/20 00:58:15;;;;;;;;;;;23.30;80.30;23.30;99408.00;;;;345737;28;92054;-92
2021/07/20 00:58:27;;;;;;;;;;;23.30;80.30;23.30;99409.00;;;;344450;28;96363;-92
2021/07/20 00:58:39;;;;;;;;;;;23.30;80.30;23.30;99398.00;;;;342920;28;91177;-93
2021/07/20 00:58:50;;;;;;;;;;;23.30;80.50;23.30;99408.00;;;;344586;28;96642;-92
2021/07/20 00:59:02;;;;;;;;;;;23.30;80.50;23.20;99400.00;;;;344259;28;91312;-92
2021/07/20 00:59:14;;;;;;;;;;;23.30;81.10;23.20;99409.00;;;;344549;28;92946;-92
2021/07/20 00:59:26;;;;;;;;;;;23.30;80.50;23.20;99408.00;;;;344527;28;92071;-92
2021/07/20 00:59:38;;;;;;;;;;;23.30;80.50;23.20;99401.00;;;;340309;28;96063;-93
2021/07/20 00:59:50;;;;;;;;;;;23.30;80.50;23.20;99402.00;;;;336024;28;92082;-92
2021/07/20 01:00:07;;;;;;;;;;;23.30;80.50;23.30;99409.00;;;;338878;28;96003;-92
2021/07/20 01:00:19;;;;;;;;;;;23.20;80.50;23.20;99404.00;;;;338605;28;92027;-92
2021/07/20 01:00:31;;;;;;;;;;;23.30;80.60;23.30;99398.00;;;;341130;28;94680;-92
2021/07/20 01:00:47;;;;;;;;;;;23.30;80.60;23.20;99401.00;;;;343122;28;91218;-92
2021/07/20 01:00:59;;;;;;;;;;;23.30;80.50;23.20;99404.00;;;;344542;28;95061;-92
2021/07/20 01:01:12;;;;;;;;;;;23.30;80.40;23.20;99399.00;;;;336155;28;91209;-93
2021/07/20 01:01:24;;;;;;;;;;;23.30;80.50;23.20;99403.00;;;;338640;28;95228;-92
2021/07/20 01:01:37;;;;;;;;;;;23.30;80.50;23.20;99402.00;;;;336100;28;91978;-92